Time;durP1;ratioP1;P1;durP2;ratioP2;P2;SDS_P1;SDS_P2;PMS_P1;PMS_P2;Temp;Humidity;BMP_temperature;BMP_pressure;BME280_temperature;BME280_humidity;BME280_pressure;Samples;Min_cycle;Max_cycle;Signal;HPM_P1;HPM_P2
2022/08/18 00:00:34;;;;;;;47.85;17.38;;;;;;;22.03;99.81;100664.59;2080817;28;20523;-67
2022/08/18 00:01:39;;;;;;;42.25;17.02;;;;;;;22.02;99.93;100657.53;2073391;28;20494;-68
2022/08/18 00:02:43;;;;;;;44.05;16.50;;;;;;;22.02;99.95;100660.28;2072376;28;20053;-68
2022/08/18 00:03:45;;;;;;;37.25;17.48;;;;;;;22.04;99.94;100663.47;2080963;28;20049;-67
2022/08/18 00:04:47;;;;;;;42.20;16.95;;;;;;;22.06;99.92;100655.69;2080906;28;20119;-68
2022/08/18 00:05:49;;;;;;;32.40;15.52;;;;;;;22.04;99.91;100652.50;2074066;28;20045;-68
2022/08/18 00:06:56;;;;;;;41.72;17.25;;;;;;;22.06;100.00;100661.16;2073708;28;20034;-68
2022/08/18 00:08:01;;;;;;;37.85;16.95;;;;;;;22.08;99.57;100658.88;2072814;28;20053;-68
2022/08/18 00:09:04;;;;;;;55.00;18.17;;;;;;;22.03;100.00;100656.38;2072871;28;20862;-68
2022/08/18 00:10:08;;;;;;;69.53;18.13;;;;;;;22.03;100.00;100650.91;2086244;28;20432;-68
2022/08/18 00:11:11;;;;;;;44.25;15.98;;;;;;;22.01;99.89;100659.50;2080022;28;20460;-68
2022/08/18 00:12:39;;;;;;;34.38;16.95;;;;;;;22.04;99.91;100655.25;2080396;28;20049;-67
2022/08/18 00:13:43;;;;;;;50.33;16.42;;;;;;;21.98;99.98;100655.50;2078298;28;20038;-69
2022/08/18 00:14:45;;;;;;;32.38;16.27;;;;;;;22.02;100.00;100660.28;2072479;28;20038;-68
2022/08/18 00:15:53;;;;;;;33.20;16.83;;;;;;;22.03;100.00;100661.84;2064707;28;20038;-68
2022/08/18 00:16:57;;;;;;;36.53;15.93;;;;;;;22.07;100.00;100665.47;2072895;28;20370;-68
2022/08/18 00:18:02;;;;;;;35.42;16.05;;;;;;;22.08;100.00;100654.19;2073084;28;20045;-68
2022/08/18 00:19:07;;;;;;;52.20;16.92;;;;;;;22.08;99.98;100656.13;2080815;28;20398;-68
2022/08/18 00:20:22;;;;;;;47.25;15.95;;;;;;;22.09;99.84;100655.75;2082656;28;20056;-68
2022/08/18 00:21:25;;;;;;;37.53;16.45;;;;;;;22.09;99.99;100658.50;2074720;28;20421;-68
2022/08/18 00:22:32;;;;;;;44.20;16.35;;;;;;;22.09;99.85;100654.97;2080901;28;20472;-67
2022/08/18 00:23:38;;;;;;;40.95;16.33;;;;;;;22.10;99.78;100659.28;2072669;28;20122;-67
2022/08/18 00:24:40;;;;;;;37.33;17.13;;;;;;;22.10;99.66;100656.56;2073166;28;20033;-67
2022/08/18 00:25:54;;;;;;;38.13;16.00;;;;;;;22.10;99.61;100653.81;2072967;28;20168;-68
2022/08/18 00:26:59;;;;;;;36.72;17.27;;;;;;;22.09;99.65;100663.19;2074503;28;20050;-68
2022/08/18 00:28:04;;;;;;;33.88;16.40;;;;;;;22.11;99.71;100652.69;2073383;28;20034;-68
2022/08/18 00:29:06;;;;;;;33.53;15.85;;;;;;;22.11;99.68;100658.16;2072663;28;20398;-68
2022/08/18 00:30:15;;;;;;;39.15;16.70;;;;;;;22.08;99.61;100653.38;2079912;28;20049;-67
2022/08/18 00:31:18;;;;;;;38.22;15.90;;;;;;;22.08;99.67;100651.44;2072366;28;20048;-67
2022/08/18 00:32:28;;;;;;;33.50;16.58;;;;;;;22.08;99.63;100650.66;2072835;28;20041;-67
2022/08/18 00:33:37;;;;;;;35.53;16.85;;;;;;;22.10;99.58;100646.41;2072324;28;20053;-67
2022/08/18 00:34:42;;;;;;;35.35;16.88;;;;;;;22.11;99.40;100650.72;2069699;28;20049;-67
2022/08/18 00:35:48;;;;;;;34.30;16.98;;;;;;;22.11;99.31;100660.91;2072192;28;20049;-67
2022/08/18 00:36:55;;;;;;;38.30;16.70;;;;;;;22.09;99.41;100661.25;2066730;28;20046;-67
2022/08/18 00:38:00;;;;;;;35.78;16.65;;;;;;;22.09;99.53;100663.19;2077140;28;20037;-68
2022/08/18 00:39:07;;;;;;;33.88;16.35;;;;;;;22.08;99.36;100659.66;2071517;28;20042;-67
2022/08/18 00:40:20;;;;;;;32.28;16.95;;;;;;;22.09;99.36;100657.72;2071151;28;20473;-67
2022/08/18 00:41:25;;;;;;;34.72;17.00;;;;;;;22.06;99.43;100655.69;2072288;28;20054;-68
2022/08/18 00:42:28;;;;;;;49.25;17.73;;;;;;;22.07;99.47;100655.34;2079792;28;20045;-67
2022/08/18 00:43:41;;;;;;;34.80;16.73;;;;;;;22.06;99.46;100658.41;2079907;28;20060;-67
2022/08/18 00:44:42;;;;;;;38.90;16.55;;;;;;;22.05;99.50;100654.88;2063441;28;20455;-68
2022/08/18 00:45:45;;;;;;;53.42;17.98;;;;;;;22.05;99.55;100649.41;2063809;28;20046;-67
2022/08/18 00:46:51;;;;;;;43.42;17.70;;;;;;;22.02;99.52;100649.31;2070339;28;20610;-67
2022/08/18 00:47:58;;;;;;;36.20;16.30;;;;;;;22.01;99.60;100643.06;2063907;28;20042;-67
2022/08/18 00:49:00;;;;;;;33.35;17.05;;;;;;;22.01;99.68;100642.28;2079712;28;20041;-67
2022/08/18 00:50:14;;;;;;;37.45;17.35;;;;;;;22.02;99.61;100644.66;2079179;28;20068;-67
2022/08/18 00:51:44;;;;;;;34.47;17.05;;;;;;;22.04;99.71;100652.50;2082951;28;20037;-67
2022/08/18 00:52:54;;;;;;;57.40;16.95;;;;;;;22.02;99.75;100643.84;2076478;28;20038;-67
2022/08/18 00:54:02;;;;;;;50.75;17.48;;;;;;;22.00;99.79;100652.41;2079783;28;20148;-67
2022/08/18 00:55:06;;;;;;;;;;;;;;;22.02;99.93;100652.06;2089059;28;20504;-68
2022/08/18 00:56:21;;;;;;;33.20;17.00;;;;;;;22.04;99.83;100655.25;2080898;28;19920;-68
2022/08/18 00:57:27;;;;;;;35.60;17.52;;;;;;;22.05;99.82;100649.41;2080563;28;20057;-67
2022/08/18 00:58:39;;;;;;;37.83;17.30;;;;;;;22.07;99.94;100658.06;2079929;28;20054;-68
2022/08/18 01:00:03;;;;;;;36.00;17.88;;;;;;;22.07;99.68;100651.78;2074207;28;20635;-67
2022/08/18 01:01:10;;;;;;;33.20;16.10;;;;;;;22.07;99.75;100655.34;2075748;28;20052;-68
2022/08/18 01:02:23;;;;;;;39.75;17.45;;;;;;;22.06;99.97;100656.47;2079628;28;20053;-68
2022/08/18 01:03:32;;;;;;;40.17;17.65;;;;;;;22.05;99.84;100659.56;2080515;28;20128;-67
2022/08/18 01:04:50;;;;;;;39.38;17.10;;;;;;;22.05;99.85;100654.88;2073229;28;20413;-67
2022/08/18 01:06:02;;;;;;;38.97;16.88;;;;;;;22.05;100.00;100660.38;2070384;28;20046;-67
2022/08/18 01:07:19;;;;;;;37.45;16.75;;;;;;;22.06;99.82;100658.41;2065239;28;20034;-67
2022/08/18 01:08:25;;;;;;;39.70;17.00;;;;;;;22.05;99.74;100654.09;2074302;28;20590;-68
2022/08/18 01:09:31;;;;;;;34.00;17.48;;;;;;;22.02;99.73;100654.81;2080259;28;20048;-68
2022/08/18 01:10:35;;;;;;;39.45;17.15;;;;;;;22.01;99.70;100653.22;2072200;28;20041;-67
2022/08/18 01:11:38;;;;;;;32.03;15.88;;;;;;;21.98;99.82;100649.25;2064909;28;20050;-67
2022/08/18 01:12:42;;;;;;;34.70;17.25;;;;;;;21.99;99.73;100657.09;2079838;28;20535;-67
2022/08/18 01:13:47;;;;;;;35.00;17.08;;;;;;;21.94;99.88;100654.63;2080447;28;20064;-67
2022/08/18 01:14:49;;;;;;;36.30;16.25;;;;;;;21.97;99.98;100650.38;2079440;28;20049;-67
2022/08/18 01:15:53;;;;;;;40.42;16.40;;;;;;;21.98;99.98;100651.97;2064080;28;20042;-67
2022/08/18 01:22:48;;;;;;;38.00;16.13;;;;;;;22.02;99.71;100646.59;2072077;28;20055;-68
2022/08/18 01:23:54;;;;;;;34.45;17.00;;;;;;;22.03;99.79;100650.91;2074396;28;20417;-67
2022/08/18 01:26:25;;;;;;;34.28;15.75;;;;;;;22.05;99.65;100643.16;2080887;28;20037;-67
2022/08/18 01:27:30;;;;;;;33.35;15.95;;;;;;;22.06;99.58;100633.78;2080406;28;20330;-68
2022/08/18 01:28:40;;;;;;;34.08;17.23;;;;;;;22.06;99.63;100648.25;2080143;28;20044;-67
2022/08/18 01:29:47;;;;;;;36.67;17.23;;;;;;;22.05;99.70;100648.63;2079617;28;20053;-67
2022/08/18 01:30:57;;;;;;;34.05;17.20;;;;;;;22.06;99.73;100650.19;2076539;28;20046;-68
2022/08/18 01:31:59;;;;;;;34.72;15.82;;;;;;;22.05;99.57;100646.69;2074336;28;20033;-67
2022/08/18 01:33:11;;;;;;;34.15;15.98;;;;;;;22.04;99.61;100644.31;2078913;28;20105;-68
2022/08/18 01:34:16;;;;;;;33.92;16.05;;;;;;;22.04;99.59;100639.63;2073079;28;20533;-67
2022/08/18 01:35:24;;;;;;;37.75;17.42;;;;;;;22.05;99.61;100643.16;2088190;28;20036;-68
2022/08/18 01:36:30;;;;;;;34.72;16.75;;;;;;;22.04;99.70;100647.03;2088449;28;20452;-67
2022/08/18 01:37:32;;;;;;;38.25;17.00;;;;;;;22.04;99.62;100647.03;2072737;28;20046;-68
2022/08/18 01:38:38;;;;;;;37.33;16.40;;;;;;;22.04;99.65;100647.84;2072370;28;20038;-68
2022/08/18 01:39:42;;;;;;;34.40;16.85;;;;;;;22.03;99.58;100645.44;2071890;28;20038;-67
2022/08/18 01:40:50;;;;;;;35.28;16.40;;;;;;;22.04;99.65;100639.63;2064409;28;20046;-67
2022/08/18 01:41:55;;;;;;;33.00;16.38;;;;;;;22.04;99.63;100642.34;2064771;28;20061;-67
2022/08/18 01:43:05;;;;;;;37.47;17.15;;;;;;;22.06;99.68;100639.25;2072022;28;20034;-67
2022/08/18 01:44:10;;;;;;;36.75;16.80;;;;;;;22.06;99.67;100639.25;2079508;28;20037;-67
2022/08/18 01:45:16;;;;;;;36.88;16.98;;;;;;;22.07;99.59;100635.34;2072349;28;20078;-67
2022/08/18 01:46:23;;;;;;;38.05;16.85;;;;;;;22.08;99.67;100643.22;2072688;28;20053;-66
2022/08/18 01:47:28;;;;;;;33.55;16.63;;;;;;;22.06;99.73;100636.50;2072503;28;20046;-67
2022/08/18 01:48:36;;;;;;;37.53;16.77;;;;;;;22.05;99.79;100637.66;2072842;28;20038;-67
2022/08/18 01:49:42;;;;;;;33.00;16.33;;;;;;;22.04;99.81;100638.81;2080191;28;20048;-67
2022/08/18 01:50:48;;;;;;;37.97;17.48;;;;;;;22.04;99.84;100630.63;2080035;28;20041;-67
2022/08/18 01:51:56;;;;;;;33.28;16.85;;;;;;;22.05;99.94;100626.72;2072686;28;20038;-67
2022/08/18 01:53:06;;;;;;;38.88;17.23;;;;;;;22.06;99.86;100639.25;2072971;28;20050;-66
2022/08/18 01:54:10;;;;;;;35.40;16.33;;;;;;;22.06;99.90;100631.03;2080152;28;20037;-67
2022/08/18 01:55:12;;;;;;;37.72;17.80;;;;;;;22.08;99.89;100636.97;2080023;28;20048;-66
2022/08/18 01:56:17;;;;;;;31.80;15.98;;;;;;;22.07;99.91;100627.13;2071897;28;20040;-67
2022/08/18 01:57:20;;;;;;;32.75;15.77;;;;;;;22.07;100.00;100632.63;2072153;28;20533;-67
2022/08/18 01:58:28;;;;;;;31.58;16.33;;;;;;;22.07;100.00;100635.34;2070652;28;20555;-67
2022/08/18 01:59:35;;;;;;;30.63;16.27;;;;;;;22.06;100.00;100626.34;2072425;28;20053;-67
2022/08/18 02:00:42;;;;;;;33.33;16.33;;;;;;;22.09;100.00;100635.81;2080787;28;20551;-67
2022/08/18 02:01:46;;;;;;;40.70;16.92;;;;;;;22.09;100.00;100622.13;2079244;28;20040;-67
2022/08/18 02:02:50;;;;;;;37.72;16.92;;;;;;;22.10;100.00;100618.22;2080275;28;20029;-67
2022/08/18 02:03:55;;;;;;;39.55;16.92;;;;;;;22.11;100.00;100619.81;2087516;28;20134;-67
2022/08/18 02:05:02;;;;;;;33.50;16.67;;;;;;;22.11;100.00;100620.63;2063601;28;20049;-67
2022/08/18 02:06:08;;;;;;;36.60;16.73;;;;;;;22.11;100.00;100619.81;2068588;28;20517;-67
2022/08/18 02:07:13;;;;;;;32.00;16.83;;;;;;;22.11;100.00;100620.63;2087371;28;20056;-67
2022/08/18 02:08:17;;;;;;;44.63;16.90;;;;;;;22.13;100.00;100626.53;2071671;28;20046;-67
2022/08/18 02:09:20;;;;;;;40.55;18.10;;;;;;;22.14;100.00;100625.38;2064491;28;20035;-66
2022/08/18 02:10:24;;;;;;;42.08;17.50;;;;;;;22.14;100.00;100630.84;2071495;28;20042;-66
2022/08/18 02:11:26;;;;;;;35.95;17.33;;;;;;;22.14;100.00;100624.59;2071920;28;20309;-67
2022/08/18 02:12:30;;;;;;;33.03;16.40;;;;;;;22.16;100.00;100627.78;2073799;28;20046;-66
2022/08/18 02:13:33;;;;;;;37.22;18.17;;;;;;;22.14;100.00;100628.13;2064118;28;20351;-66
2022/08/18 02:14:39;;;;;;;38.15;17.30;;;;;;;22.15;100.00;100637.13;2072709;28;20045;-66
2022/08/18 02:15:41;;;;;;;40.13;17.40;;;;;;;22.16;100.00;100627.78;2071613;28;20049;-66
2022/08/18 02:16:45;;;;;;;38.95;17.88;;;;;;;22.18;100.00;100630.97;2080203;28;20033;-66
2022/08/18 02:17:51;;;;;;;38.47;17.08;;;;;;;22.19;100.00;100632.53;2082789;28;20049;-66
2022/08/18 02:19:00;;;;;;;40.20;17.27;;;;;;;22.18;100.00;100630.97;2065038;28;20058;-67
2022/08/18 02:20:01;;;;;;;40.65;17.80;;;;;;;22.15;100.00;100626.97;2071034;28;20045;-67
2022/08/18 02:21:14;;;;;;;34.03;16.85;;;;;;;22.16;100.00;100630.53;2063463;28;20042;-67
2022/08/18 02:22:18;;;;;;;37.00;16.80;;;;;;;22.16;100.00;100627.78;2073159;28;20045;-66
2022/08/18 02:23:23;;;;;;;38.25;17.52;;;;;;;22.16;100.00;100633.25;2071756;28;20046;-67
2022/08/18 02:24:25;;;;;;;37.67;18.20;;;;;;;22.16;100.00;100630.53;2075701;28;20390;-67
2022/08/18 02:25:33;;;;;;;40.63;17.48;;;;;;;22.14;100.00;100628.13;2079660;28;20041;-68
2022/08/18 02:26:38;;;;;;;32.95;17.30;;;;;;;22.14;100.00;100630.84;2079771;28;20025;-67
2022/08/18 02:27:43;;;;;;;38.03;17.08;;;;;;;22.12;100.00;100626.88;2080154;28;20052;-67
2022/08/18 02:28:52;;;;;;;38.17;17.48;;;;;;;22.12;100.00;100632.34;2079848;28;20041;-67
2022/08/18 02:29:55;;;;;;;37.03;17.63;;;;;;;22.13;99.97;100629.28;2079902;28;20033;-67
2022/08/18 02:31:15;;;;;;;39.85;17.20;;;;;;;22.15;99.85;100631.66;2087992;28;20048;-68
2022/08/18 02:32:17;;;;;;;42.47;18.52;;;;;;;22.15;99.82;100628.91;2079385;28;20033;-67
2022/08/18 02:33:25;;;;;;;37.63;18.23;;;;;;;22.13;99.79;100629.28;2071887;28;20049;-68
2022/08/18 02:34:30;;;;;;;40.80;17.35;;;;;;;22.13;99.69;100623.81;2064702;28;20046;-67
2022/08/18 02:35:32;;;;;;;37.38;16.80;;;;;;;22.15;99.70;100626.16;2071891;28;20049;-68
2022/08/18 02:36:36;;;;;;;35.63;17.58;;;;;;;22.15;99.58;100620.69;2072163;28;20041;-68
2022/08/18 02:37:46;;;;;;;37.67;16.65;;;;;;;22.16;99.53;100622.31;2079111;28;20437;-68
2022/08/18 02:38:50;;;;;;;37.72;16.63;;;;;;;22.14;99.58;100619.13;2071517;28;20053;-67
2022/08/18 02:39:54;;;;;;;39.20;17.35;;;;;;;22.15;99.54;100620.69;2067092;28;20061;-68
2022/08/18 02:40:59;;;;;;;42.92;17.77;;;;;;;22.14;99.52;100627.34;2086922;28;20479;-68
2022/08/18 02:42:01;;;;;;;39.80;17.30;;;;;;;22.11;99.59;100631.56;2079202;28;20052;-67
2022/08/18 02:43:10;;;;;;;40.63;17.50;;;;;;;22.10;99.54;100629.16;2072035;28;20494;-67
2022/08/18 02:44:12;;;;;;;47.17;17.17;;;;;;;22.11;99.52;100630.78;2079652;28;20401;-67
2022/08/18 02:45:17;;;;;;;42.55;17.27;;;;;;;22.08;99.60;100631.50;2079741;28;20041;-67
2022/08/18 02:46:22;;;;;;;38.03;16.95;;;;;;;22.08;99.58;100629.53;2079616;28;20413;-67
2022/08/18 02:47:26;;;;;;;38.05;16.90;;;;;;;22.07;99.67;100627.97;2072082;28;20048;-67
2022/08/18 02:48:34;;;;;;;35.70;17.15;;;;;;;22.09;99.64;100622.13;2071948;28;20409;-68
2022/08/18 02:49:39;;;;;;;33.10;16.35;;;;;;;22.09;99.65;100619.38;2079843;28;20033;-67
2022/08/18 02:50:45;;;;;;;34.70;17.05;;;;;;;22.11;99.75;100619.81;2079457;28;20033;-67
2022/08/18 02:51:50;;;;;;;34.50;17.02;;;;;;;22.11;99.68;100620.63;2079754;28;20037;-67
2022/08/18 02:52:53;;;;;;;37.25;17.00;;;;;;;22.11;99.70;100623.34;2071515;28;20041;-67
2022/08/18 02:53:58;;;;;;;34.72;17.10;;;;;;;22.07;99.70;100618.94;2071862;28;20038;-67
2022/08/18 02:55:03;;;;;;;37.90;16.70;;;;;;;22.06;99.72;100623.59;2078972;28;20073;-67
2022/08/18 02:56:27;;;;;;;48.42;18.17;;;;;;;22.06;99.67;100617.34;2079242;28;20547;-67
2022/08/18 02:57:33;;;;;;;34.17;15.77;;;;;;;22.07;99.69;100618.94;2072060;28;20073;-67
2022/08/18 02:58:35;;;;;;;37.08;16.98;;;;;;;22.08;99.70;100615.06;2075291;28;20036;-67
2022/08/18 02:59:39;;;;;;;38.75;16.23;;;;;;;22.08;99.67;100615.84;2080324;28;20044;-67
2022/08/18 03:00:41;;;;;;;37.92;18.00;;;;;;;22.09;99.69;100616.63;2079670;28;20037;-67
2022/08/18 03:01:52;;;;;;;35.95;17.25;;;;;;;22.09;99.71;100622.13;2071673;28;20042;-67
2022/08/18 03:02:53;;;;;;;50.83;17.30;;;;;;;22.08;99.79;100612.31;2072792;28;20049;-67
2022/08/18 03:04:01;;;;;;;42.25;17.52;;;;;;;22.05;99.93;100615.75;2071863;28;20042;-66
2022/08/18 03:05:05;;;;;;;42.92;18.73;;;;;;;22.05;99.82;100616.56;2080145;28;20033;-67
2022/08/18 03:06:09;;;;;;;37.80;17.45;;;;;;;22.08;99.89;100612.31;2077315;28;20037;-68
2022/08/18 03:07:13;;;;;;;44.20;17.10;;;;;;;22.05;99.87;100613.81;2071467;28;20057;-67
2022/08/18 03:08:17;;;;;;;36.50;16.85;;;;;;;22.06;99.92;100611.88;2063711;28;20038;-67
2022/08/18 03:09:23;;;;;;;36.10;16.55;;;;;;;22.07;99.91;100607.97;2072809;28;20042;-67
2022/08/18 03:10:28;;;;;;;36.55;16.92;;;;;;;22.06;99.81;100615.41;2079565;28;20037;-67
2022/08/18 03:11:32;;;;;;;37.00;16.45;;;;;;;22.06;99.78;100611.88;2063412;28;20038;-67
2022/08/18 03:12:36;;;;;;;36.58;16.52;;;;;;;22.04;99.83;100625.94;2072354;28;20025;-67
2022/08/18 03:13:40;;;;;;;38.35;16.33;;;;;;;22.04;99.76;100620.44;2071333;28;20045;-67
2022/08/18 03:14:48;;;;;;;38.80;16.92;;;;;;;22.05;99.82;100621.25;2072401;28;20049;-67
2022/08/18 03:15:53;;;;;;;36.08;16.70;;;;;;;22.03;99.95;100613.38;2078818;28;20041;-67
2022/08/18 03:16:57;;;;;;;43.35;16.27;;;;;;;22.03;100.00;100620.78;2079653;28;20056;-67
2022/08/18 03:18:01;;;;;;;39.97;16.98;;;;;;;22.02;100.00;100632.91;2073764;28;20037;-67
2022/08/18 03:19:03;;;;;;;51.40;16.70;;;;;;;21.99;100.00;100629.72;2071528;28;20552;-67
2022/08/18 03:20:07;;;;;;;35.90;17.65;;;;;;;21.98;100.00;100633.59;2071519;28;20049;-67
2022/08/18 03:21:12;;;;;;;34.47;16.45;;;;;;;22.01;100.00;100634.06;2079478;28;20041;-68
2022/08/18 03:22:18;;;;;;;38.03;17.30;;;;;;;22.01;100.00;100634.06;2071372;28;20050;-67
2022/08/18 03:23:24;;;;;;;39.40;16.83;;;;;;;22.01;100.00;100631.31;2084297;28;20033;-67
2022/08/18 03:24:27;;;;;;;41.72;16.67;;;;;;;22.01;100.00;100636.78;2094262;28;20044;-67
2022/08/18 03:25:31;;;;;;;39.95;17.58;;;;;;;22.02;100.00;100635.63;2079509;28;20033;-67
2022/08/18 03:26:38;;;;;;;39.17;16.13;;;;;;;22.03;100.00;100637.22;2071658;28;20365;-67
2022/08/18 03:27:43;;;;;;;29.05;15.23;;;;;;;22.03;100.00;100648.16;2071027;28;20044;-67
2022/08/18 03:28:48;;;;;;;61.28;16.05;;;;;;;22.03;100.00;100645.44;2069592;28;20034;-67
2022/08/18 03:29:54;;;;;;;41.55;16.13;;;;;;;22.03;100.00;100639.97;2078534;28;20045;-67
2022/08/18 03:30:56;;;;;;;41.90;17.08;;;;;;;22.01;100.00;100653.22;2063945;28;20038;-67
2022/08/18 03:31:59;;;;;;;39.67;16.85;;;;;;;22.01;100.00;100658.69;2071395;28;20529;-67
2022/08/18 03:33:01;;;;;;;38.50;16.05;;;;;;;21.99;100.00;100643.41;2079459;28;20030;-67
2022/08/18 03:34:04;;;;;;;35.63;17.33;;;;;;;21.97;100.00;100648.47;2072034;28;20044;-67
2022/08/18 03:35:08;;;;;;;49.35;15.80;;;;;;;21.97;100.00;100642.97;2082778;28;20036;-68
2022/08/18 03:36:19;;;;;;;38.88;16.05;;;;;;;21.96;100.00;100641.38;2083323;28;20037;-67
2022/08/18 03:37:21;;;;;;;40.30;16.90;;;;;;;21.98;100.00;100639.09;2079429;28;20034;-67
2022/08/18 03:38:26;;;;;;;41.90;17.20;;;;;;;21.97;100.00;100637.50;2071506;28;20034;-68
2022/08/18 03:39:33;;;;;;;47.63;17.58;;;;;;;21.98;100.00;100641.81;2088392;28;20468;-68
2022/08/18 03:40:42;;;;;;;38.10;16.45;;;;;;;21.98;100.00;100650.03;2086287;28;20497;-68
2022/08/18 03:41:47;;;;;;;40.63;16.17;;;;;;;21.97;100.00;100637.50;2088558;28;20036;-67
2022/08/18 03:42:54;;;;;;;45.15;16.48;;;;;;;21.96;100.00;100638.63;2087162;28;20039;-67
2022/08/18 03:43:59;;;;;;;;;;;;;;;21.95;100.00;100641.75;2064749;28;20042;-68
2022/08/18 03:45:01;;;;;;;34.85;15.50;;;;;;;21.94;100.00;100642.88;2071643;28;19921;-68
2022/08/18 03:46:08;;;;;;;41.80;16.08;;;;;;;21.95;100.00;100639.78;2071257;28;20057;-68
2022/08/18 03:47:13;;;;;;;39.35;16.15;;;;;;;21.94;100.00;100640.94;2072423;28;20042;-67
2022/08/18 03:48:15;;;;;;;41.10;17.30;;;;;;;21.94;100.00;100642.88;2079577;28;20048;-68
2022/08/18 03:49:19;;;;;;;44.47;16.58;;;;;;;21.92;100.00;100640.50;2079651;28;20041;-67
2022/08/18 03:50:24;;;;;;;55.17;17.45;;;;;;;21.90;100.00;100636.50;2079332;28;20378;-68
2022/08/18 03:51:28;;;;;;;67.57;17.52;;;;;;;21.91;100.00;100641.66;2071376;28;20042;-68
2022/08/18 03:52:32;;;;;;;46.05;17.55;;;;;;;21.88;100.00;100639.63;2080037;28;20033;-68
2022/08/18 03:53:39;;;;;;;46.53;16.75;;;;;;;21.90;100.00;100642.78;2071326;28;20038;-68
2022/08/18 03:54:42;;;;;;;38.47;17.20;;;;;;;21.91;100.00;100638.91;2072532;28;20030;-67
2022/08/18 03:55:44;;;;;;;43.95;15.85;;;;;;;21.91;100.00;100636.19;2079352;28;20041;-68
2022/08/18 03:56:53;;;;;;;38.70;16.85;;;;;;;21.93;100.00;100647.56;2071282;28;20053;-67
2022/08/18 03:58:01;;;;;;;36.72;16.10;;;;;;;21.93;100.00;100646.75;2080589;28;20044;-67
2022/08/18 03:59:15;;;;;;;40.05;15.20;;;;;;;21.92;100.00;100645.97;2086682;28;20575;-67
2022/08/18 04:00:18;;;;;;;40.15;15.43;;;;;;;21.93;100.00;100641.28;2079554;28;20045;-67
2022/08/18 04:01:23;;;;;;;33.83;14.55;;;;;;;21.91;100.00;100644.38;2063112;28;20081;-68
2022/08/18 04:02:31;;;;;;;53.80;14.32;;;;;;;21.93;100.00;100647.56;2070817;28;20050;-67
2022/08/18 04:03:35;;;;;;;43.17;13.93;;;;;;;21.92;100.00;100640.50;2071228;28;20049;-67
2022/08/18 04:04:37;;;;;;;54.00;13.85;;;;;;;21.93;100.00;100647.56;2071438;28;20161;-68
2022/08/18 04:05:46;;;;;;;31.40;11.43;;;;;;;21.93;100.00;100644.81;2086864;28;20071;-68
2022/08/18 04:07:13;;;;;;;29.00;12.48;;;;;;;21.96;100.00;100648.78;2077607;28;20524;-68
2022/08/18 04:08:14;;;;;;;27.88;11.82;;;;;;;21.95;100.00;100648.00;2067379;28;20041;-68
2022/08/18 04:09:18;;;;;;;40.83;11.55;;;;;;;21.95;100.00;100650.75;2069787;28;20050;-69
2022/08/18 04:10:29;;;;;;;54.13;12.70;;;;;;;21.93;100.00;100657.72;2078942;28;20056;-68
2022/08/18 04:11:36;;;;;;;33.22;12.43;;;;;;;21.92;100.00;100653.38;2063189;28;20034;-68
2022/08/18 04:12:40;;;;;;;39.15;14.23;;;;;;;21.89;100.00;100656.84;2065760;28;20109;-68
2022/08/18 04:13:50;;;;;;;36.70;15.23;;;;;;;21.89;100.00;100660.38;2077597;28;20053;-68
2022/08/18 04:14:56;;;;;;;36.55;15.30;;;;;;;21.90;100.00;100658.41;2072723;28;20045;-68
2022/08/18 04:16:01;;;;;;;38.42;15.23;;;;;;;21.90;100.00;100655.69;2078703;28;20088;-67
2022/08/18 04:17:06;;;;;;;35.05;15.45;;;;;;;21.88;100.00;100650.56;2071192;28;20049;-68
2022/08/18 04:18:08;;;;;;;41.92;15.45;;;;;;;21.90;100.00;100659.19;2069889;28;20041;-68
2022/08/18 04:19:12;;;;;;;33.75;14.93;;;;;;;21.91;100.00;100652.59;2063244;28;20042;-68
2022/08/18 04:20:16;;;;;;;49.10;15.88;;;;;;;21.92;100.00;100650.66;2071143;28;20037;-67
2022/08/18 04:21:22;;;;;;;35.65;15.13;;;;;;;21.89;100.00;100652.16;2079034;28;20053;-68
2022/08/18 04:22:25;;;;;;;36.97;15.23;;;;;;;21.92;100.00;100645.19;2079606;28;20049;-67
2022/08/18 04:23:27;;;;;;;40.63;15.85;;;;;;;21.93;100.00;100649.50;2085290;28;20052;-68
2022/08/18 04:24:33;;;;;;;42.85;15.65;;;;;;;21.93;100.00;100646.75;2080393;28;20044;-68
2022/08/18 04:25:39;;;;;;;43.53;15.93;;;;;;;21.93;100.00;100646.75;2088021;28;20032;-67
2022/08/18 04:26:45;;;;;;;34.97;15.50;;;;;;;21.95;100.00;100645.25;2080555;28;20124;-67
2022/08/18 04:27:47;;;;;;;41.08;15.88;;;;;;;21.97;100.00;100653.94;2080861;28;20064;-68
2022/08/18 04:28:52;;;;;;;43.30;16.67;;;;;;;21.97;100.00;100645.72;2064174;28;20034;-67
2022/08/18 04:29:57;;;;;;;39.83;17.00;;;;;;;21.98;100.00;100655.50;2065614;28;20093;-67
2022/08/18 04:31:09;;;;;;;49.80;15.80;;;;;;;21.98;100.00;100649.25;2080859;28;20045;-67
2022/08/18 04:32:11;;;;;;;33.40;15.35;;;;;;;21.98;100.00;100655.50;2072046;28;20046;-67
2022/08/18 04:33:16;;;;;;;34.28;15.77;;;;;;;22.00;100.00;100655.13;2080618;28;20037;-68
2022/08/18 04:34:21;;;;;;;36.22;15.65;;;;;;;21.98;100.00;100661.00;2072673;28;20054;-68
2022/08/18 04:35:30;;;;;;;34.33;14.85;;;;;;;22.00;100.00;100652.41;2065703;28;20509;-67
2022/08/18 04:36:38;;;;;;;34.47;15.57;;;;;;;22.03;100.00;100656.38;2072622;28;20053;-67
2022/08/18 04:37:44;;;;;;;32.33;15.52;;;;;;;22.05;100.00;100665.84;2087998;28;20091;-67
2022/08/18 04:38:50;;;;;;;38.42;15.80;;;;;;;22.07;100.00;100654.53;2079896;28;20037;-69
2022/08/18 04:39:53;;;;;;;35.83;16.48;;;;;;;22.10;100.00;100656.56;2069512;28;20057;-70
2022/08/18 04:40:58;;;;;;;34.05;15.90;;;;;;;22.12;100.00;100657.78;2071653;28;20509;-71
2022/08/18 04:42:04;;;;;;;39.40;15.75;;;;;;;22.15;100.00;100659.81;2071461;28;20042;-69
2022/08/18 04:43:14;;;;;;;31.70;15.35;;;;;;;22.19;100.00;100665.41;2063157;28;20050;-70
2022/08/18 04:44:30;;;;;;;34.70;15.63;;;;;;;22.20;100.00;100661.53;2075679;28;20060;-69
2022/08/18 04:45:35;;;;;;;30.83;15.38;;;;;;;22.22;100.00;100670.19;2079660;28;20056;-70
2022/08/18 04:46:43;;;;;;;37.00;15.95;;;;;;;22.23;100.00;100669.06;2079058;28;20584;-70
2022/08/18 04:47:50;;;;;;;33.35;16.17;;;;;;;22.22;100.00;100670.19;2071279;28;20041;-70
2022/08/18 04:49:00;;;;;;;34.90;16.15;;;;;;;22.24;100.00;100667.09;2074805;28;20409;-68
2022/08/18 04:50:07;;;;;;;35.60;15.65;;;;;;;22.24;100.00;100670.63;2079424;28;20048;-68
2022/08/18 04:51:19;;;;;;;32.22;15.23;;;;;;;22.26;100.00;100670.25;2078797;28;20057;-67
2022/08/18 04:53:45;;;;;;;30.83;15.18;;;;;;;22.26;100.00;100665.59;2068591;28;20043;-69
2022/08/18 04:54:49;;;;;;;33.95;16.02;;;;;;;22.27;100.00;100666.41;2078914;28;20485;-71
2022/08/18 04:55:56;;;;;;;34.10;14.95;;;;;;;22.28;100.00;100668.75;2079783;28;20283;-73
2022/08/18 04:57:16;;;;;;;32.20;14.15;;;;;;;22.31;100.00;100662.56;2079680;28;20735;-72
2022/08/18 04:58:20;;;;;;;32.47;14.65;;;;;;;22.34;100.00;100670.09;2092449;28;20067;-73
2022/08/18 04:59:22;;;;;;;32.85;15.70;;;;;;;22.36;100.00;100672.47;2078990;28;20050;-73
2022/08/18 05:00:24;;;;;;;34.58;15.88;;;;;;;22.35;100.00;100660.75;2071377;28;20044;-72
2022/08/18 05:01:28;;;;;;;34.63;16.05;;;;;;;22.38;100.00;100678.38;2071191;28;20045;-71
2022/08/18 05:02:37;;;;;;;35.40;16.08;;;;;;;22.36;100.00;100669.75;2071979;28;20053;-73
2022/08/18 05:03:41;;;;;;;40.30;16.10;;;;;;;22.38;100.00;100668.25;2080336;28;20064;-72
2022/08/18 05:04:47;;;;;;;35.13;15.85;;;;;;;22.39;100.00;100658.88;2070978;28;20042;-73
2022/08/18 05:05:57;;;;;;;35.78;15.73;;;;;;;22.41;100.00;100667.53;2068308;28;20045;-71
2022/08/18 05:07:01;;;;;;;33.28;16.63;;;;;;;22.49;100.00;100673.16;2078672;28;20029;-75
2022/08/18 05:08:09;;;;;;;32.83;15.77;;;;;;;22.53;100.00;100668.56;2087752;28;20453;-75